createdAt,value
2022-12-22T00:02:31.723Z,38.22
2022-12-22T00:05:17.368Z,39.13
2022-12-22T00:08:02.901Z,40.55
2022-12-22T00:10:48.626Z,35.78
2022-12-22T00:13:35.962Z,38.25
2022-12-22T00:16:21.656Z,37.05
2022-12-22T00:19:09.292Z,33.80
2022-12-22T00:22:03.309Z,34.15
2022-12-22T00:24:49.017Z,31.70
2022-12-22T00:27:41.184Z,31.98
2022-12-22T00:30:33.288Z,31.60
2022-12-22T00:33:21.878Z,28.45
2022-12-22T00:36:08.623Z,28.30
2022-12-22T00:38:58.319Z,28.00
2022-12-22T00:41:43.998Z,27.75
2022-12-22T00:44:29.981Z,27.13
2022-12-22T00:47:16.020Z,25.40
2022-12-22T00:50:06.008Z,32.35
2022-12-22T00:52:52.566Z,27.23
2022-12-22T00:55:44.397Z,26.27
2022-12-22T00:58:36.262Z,27.95
2022-12-22T01:01:22.056Z,29.17
2022-12-22T01:04:08.019Z,30.20
2022-12-22T01:06:55.454Z,24.98
2022-12-22T01:09:41.980Z,32.38
2022-12-22T01:12:47.170Z,30.08
2022-12-22T01:15:38.583Z,33.22
2022-12-22T01:18:26.513Z,34.53
2022-12-22T01:21:12.902Z,28.50
2022-12-22T01:24:00.210Z,25.95
2022-12-22T01:26:46.866Z,25.75
2022-12-22T01:29:32.230Z,30.50
2022-12-22T01:32:18.290Z,26.80
2022-12-22T01:35:03.664Z,23.90
2022-12-22T01:37:49.107Z,27.35
2022-12-22T01:40:39.109Z,25.60
2022-12-22T01:43:52.116Z,28.52
2022-12-22T01:46:40.970Z,24.10
2022-12-22T01:49:29.030Z,29.70
2022-12-22T01:52:16.675Z,28.23
2022-12-22T01:55:02.790Z,26.02
2022-12-22T01:57:49.765Z,25.80
2022-12-22T02:00:35.409Z,26.85
2022-12-22T02:03:23.589Z,26.63
2022-12-22T02:06:40.443Z,18.83
2022-12-22T02:09:57.836Z,21.48
2022-12-22T02:13:22.863Z,17.95
2022-12-22T02:16:19.796Z,20.38
2022-12-22T02:19:19.190Z,20.70
2022-12-22T02:22:35.363Z,24.90
2022-12-22T02:25:30.705Z,20.55
2022-12-22T02:28:18.367Z,18.23
2022-12-22T02:31:05.838Z,21.55
2022-12-22T02:33:51.612Z,18.85
2022-12-22T02:36:50.869Z,17.15
2022-12-22T02:39:49.385Z,17.70
2022-12-22T02:42:55.687Z,19.23
2022-12-22T02:45:47.974Z,16.02
2022-12-22T02:48:46.225Z,16.25
2022-12-22T02:51:44.025Z,19.70
2022-12-22T02:54:31.869Z,21.40
2022-12-22T02:57:17.821Z,18.38
2022-12-22T03:00:04.666Z,22.63
2022-12-22T03:02:50.637Z,19.95
2022-12-22T03:05:36.404Z,24.65
2022-12-22T03:08:22.347Z,20.65
2022-12-22T03:11:08.509Z,29.35
2022-12-22T03:13:55.116Z,27.00
2022-12-22T03:16:42.659Z,51.63
2022-12-22T03:19:30.275Z,61.95
2022-12-22T03:22:15.954Z,91.35
2022-12-22T03:25:01.762Z,40.05
2022-12-22T03:27:29.522Z,76.55
2022-12-22T03:29:56.781Z,30.15
2022-12-22T03:32:23.956Z,26.05
2022-12-22T03:34:51.167Z,24.30
2022-12-22T03:37:19.945Z,21.63
2022-12-22T03:39:47.042Z,31.10
2022-12-22T03:42:32.521Z,21.55
2022-12-22T03:45:22.236Z,28.42
2022-12-22T03:50:30.287Z,25.83
2022-12-22T03:52:59.152Z,30.75
2022-12-22T03:55:26.698Z,29.45
2022-12-22T03:57:53.973Z,29.83
2022-12-22T04:00:22.235Z,30.30
2022-12-22T04:02:50.186Z,28.52
2022-12-22T04:05:17.625Z,25.77
2022-12-22T04:07:45.047Z,30.25
2022-12-22T04:13:10.051Z,25.85
2022-12-22T04:15:37.163Z,29.58
2022-12-22T04:18:04.262Z,33.03
2022-12-22T04:20:31.447Z,27.90
2022-12-22T04:23:00.145Z,32.45
2022-12-22T04:25:28.739Z,30.48
2022-12-22T04:27:56.175Z,28.17
2022-12-22T04:30:23.349Z,29.90
2022-12-22T04:32:50.369Z,32.92
2022-12-22T04:35:17.497Z,29.05
2022-12-22T04:37:44.612Z,35.90
2022-12-22T04:40:11.774Z,36.72
2022-12-22T04:42:38.731Z,34.70
2022-12-22T04:45:06.409Z,37.97
2022-12-22T04:47:48.474Z,33.67
2022-12-22T04:50:15.521Z,44.92
2022-12-22T04:52:42.517Z,39.17
2022-12-22T04:55:09.800Z,45.13
2022-12-22T04:57:40.480Z,36.05
2022-12-22T05:00:09.899Z,40.90
2022-12-22T05:02:37.113Z,41.53
2022-12-22T05:05:04.390Z,39.65
2022-12-22T05:07:31.254Z,42.60
2022-12-22T05:09:58.204Z,47.20
2022-12-22T05:12:43.358Z,47.47
2022-12-22T05:15:11.201Z,50.80
2022-12-22T05:17:38.228Z,47.20
2022-12-22T05:20:05.645Z,53.45
2022-12-22T05:22:32.594Z,54.83
2022-12-22T05:24:59.725Z,49.17
2022-12-22T05:27:26.837Z,52.70
2022-12-22T05:29:53.803Z,49.83
2022-12-22T05:32:20.780Z,47.53
2022-12-22T05:34:47.967Z,44.40
2022-12-22T05:37:15.042Z,46.95
2022-12-22T05:39:42.059Z,44.15
2022-12-22T05:42:09.112Z,46.00
2022-12-22T05:44:36.479Z,41.20
2022-12-22T05:47:03.550Z,44.72
2022-12-22T05:49:30.593Z,38.53
2022-12-22T05:51:57.795Z,35.42
2022-12-22T05:54:24.762Z,36.28
2022-12-22T05:56:51.923Z,36.85
2022-12-22T05:59:18.935Z,32.58
2022-12-22T06:01:46.195Z,36.22
2022-12-22T06:04:13.521Z,30.08
2022-12-22T06:06:45.207Z,25.00
2022-12-22T06:09:13.368Z,26.52
2022-12-22T06:11:40.438Z,26.73
2022-12-22T06:14:10.570Z,26.70
2022-12-22T06:16:37.564Z,27.20
2022-12-22T06:19:04.578Z,27.00
2022-12-22T06:21:31.492Z,25.70
2022-12-22T06:23:58.476Z,29.20
2022-12-22T06:26:25.489Z,28.85
2022-12-22T06:28:52.629Z,30.88
2022-12-22T06:31:19.702Z,39.10
2022-12-22T06:33:46.724Z,38.17
2022-12-22T06:36:13.638Z,46.03
2022-12-22T06:38:40.922Z,39.30
2022-12-22T06:41:08.019Z,46.83
2022-12-22T06:43:34.953Z,51.92
2022-12-22T06:46:01.941Z,50.45
2022-12-22T06:48:29.116Z,58.03
2022-12-22T06:51:00.400Z,63.90
2022-12-22T06:53:27.851Z,65.20
2022-12-22T06:55:54.806Z,72.05
2022-12-22T06:58:21.890Z,61.13
2022-12-22T07:00:51.328Z,62.20
2022-12-22T07:03:18.684Z,70.38
2022-12-22T07:05:46.141Z,64.43
2022-12-22T07:08:13.013Z,78.43
2022-12-22T07:10:57.951Z,81.32
2022-12-22T07:13:35.639Z,98.88
2022-12-22T07:16:03.983Z,105.90
2022-12-22T07:18:33.278Z,98.22
2022-12-22T07:21:02.459Z,95.72
2022-12-22T07:23:30.311Z,95.28
2022-12-22T07:25:57.417Z,90.38
2022-12-22T07:28:25.269Z,88.10
2022-12-22T07:30:53.294Z,79.20
2022-12-22T07:33:20.516Z,88.70
2022-12-22T07:35:47.630Z,88.90
2022-12-22T07:38:14.535Z,98.85
2022-12-22T07:40:42.780Z,97.78
2022-12-22T07:43:10.684Z,85.32
2022-12-22T07:45:38.730Z,85.78
2022-12-22T07:48:26.088Z,70.78
2022-12-22T07:51:05.177Z,87.07
2022-12-22T07:53:34.010Z,90.57
2022-12-22T07:56:05.646Z,94.22
2022-12-22T07:58:32.696Z,93.72
2022-12-22T08:01:01.225Z,99.72
2022-12-22T08:03:28.853Z,85.70
2022-12-22T08:05:55.762Z,73.38
2022-12-22T08:08:22.948Z,89.28
2022-12-22T08:10:49.996Z,83.80
2022-12-22T08:13:17.788Z,71.22
2022-12-22T08:15:44.693Z,70.30
2022-12-22T08:18:12.361Z,73.00
2022-12-22T08:20:39.296Z,58.10
2022-12-22T08:23:06.825Z,72.47
2022-12-22T08:25:35.120Z,59.60
2022-12-22T08:28:03.139Z,65.47
2022-12-22T08:30:30.390Z,61.63
2022-12-22T08:32:57.445Z,62.05
2022-12-22T08:35:24.453Z,57.47
2022-12-22T08:37:52.552Z,60.83
2022-12-22T08:40:27.355Z,48.10
2022-12-22T08:42:59.317Z,49.25
2022-12-22T08:45:26.388Z,45.13
2022-12-22T08:47:53.299Z,41.95
2022-12-22T08:50:20.394Z,41.55
2022-12-22T08:52:47.484Z,37.75
2022-12-22T08:55:14.643Z,36.58
2022-12-22T08:57:41.976Z,42.45
2022-12-22T09:00:13.121Z,30.17
2022-12-22T09:02:40.284Z,37.53
2022-12-22T09:05:07.752Z,30.15
2022-12-22T09:07:34.573Z,34.88
2022-12-22T09:10:01.425Z,34.30
2022-12-22T09:12:28.245Z,32.63
2022-12-22T09:14:55.103Z,29.38
2022-12-22T09:17:21.998Z,28.85
2022-12-22T09:19:48.959Z,29.08
2022-12-22T09:22:18.278Z,30.67
2022-12-22T09:24:47.493Z,28.98
2022-12-22T09:27:14.486Z,30.48
2022-12-22T09:29:41.826Z,29.52
2022-12-22T09:32:08.845Z,23.95
2022-12-22T09:34:35.755Z,22.63
2022-12-22T09:37:02.753Z,24.98
2022-12-22T09:39:29.961Z,24.15
2022-12-22T09:41:58.103Z,28.45
2022-12-22T09:44:29.934Z,26.45
2022-12-22T09:47:00.227Z,18.10
2022-12-22T09:49:27.417Z,19.05
2022-12-22T09:52:01.349Z,22.92
2022-12-22T09:54:29.453Z,19.83
2022-12-22T09:56:57.324Z,18.70
2022-12-22T09:59:27.688Z,18.35
2022-12-22T10:02:18.753Z,14.40
2022-12-22T10:04:57.934Z,14.15
2022-12-22T10:07:38.485Z,15.93
2022-12-22T10:10:19.633Z,12.27
2022-12-22T10:12:49.949Z,17.65
2022-12-22T10:15:21.775Z,16.50
2022-12-22T10:18:09.235Z,12.50
2022-12-22T10:20:38.497Z,12.45
2022-12-22T10:23:16.470Z,12.90
2022-12-22T10:26:27.460Z,15.40
2022-12-22T10:28:55.838Z,12.07
2022-12-22T10:31:29.323Z,9.75
2022-12-22T10:34:10.311Z,11.93
2022-12-22T10:36:38.599Z,11.98
2022-12-22T10:39:11.159Z,10.48
2022-12-22T10:41:42.174Z,9.80
2022-12-22T10:44:19.283Z,8.75
2022-12-22T10:46:49.408Z,10.60
2022-12-22T10:49:25.392Z,7.63
2022-12-22T10:52:08.899Z,7.22
2022-12-22T10:54:36.334Z,8.93
2022-12-22T10:57:27.866Z,9.05
2022-12-22T10:59:59.096Z,8.75
2022-12-22T11:02:29.291Z,9.60
2022-12-22T11:05:08.421Z,10.52
2022-12-22T11:07:43.613Z,10.63
2022-12-22T11:10:28.585Z,10.38
2022-12-22T11:13:10.465Z,7.85
2022-12-22T11:15:54.659Z,9.52
2022-12-22T11:18:37.778Z,6.13
2022-12-22T11:21:22.032Z,7.00
2022-12-22T11:24:35.515Z,9.88
2022-12-22T11:27:27.889Z,8.77
2022-12-22T11:30:03.723Z,7.68
2022-12-22T11:32:45.676Z,8.77
2022-12-22T11:35:34.609Z,10.20
2022-12-22T11:38:22.825Z,7.30
2022-12-22T11:41:00.959Z,10.15
2022-12-22T11:43:54.370Z,5.75
2022-12-22T11:46:36.418Z,6.38
2022-12-22T11:49:12.968Z,8.38
2022-12-22T11:51:51.856Z,7.72
2022-12-22T11:54:36.576Z,12.15
2022-12-22T11:57:11.319Z,10.75
2022-12-22T11:59:45.879Z,11.40
2022-12-22T12:02:24.845Z,9.27
2022-12-22T12:05:04.036Z,10.93
2022-12-22T12:07:51.997Z,11.50
2022-12-22T12:10:42.583Z,8.85
2022-12-22T12:13:27.427Z,11.07
2022-12-22T12:16:00.402Z,8.82
2022-12-22T12:18:42.805Z,9.90
2022-12-22T12:21:24.195Z,8.02
2022-12-22T12:24:16.164Z,13.05
2022-12-22T12:27:01.977Z,8.30
2022-12-22T12:29:38.531Z,10.25
2022-12-22T12:32:11.656Z,10.38
2022-12-22T12:34:44.645Z,7.97
2022-12-22T12:37:24.245Z,10.15
2022-12-22T12:40:18.849Z,11.70
2022-12-22T12:42:48.073Z,12.40
2022-12-22T12:45:42.367Z,16.48
2022-12-22T12:48:21.998Z,10.45
2022-12-22T12:50:50.551Z,14.25
2022-12-22T12:53:19.777Z,15.80
2022-12-22T12:55:54.797Z,13.38
2022-12-22T12:58:39.713Z,11.10
2022-12-22T13:01:12.339Z,9.73
2022-12-22T13:06:51.088Z,14.85
2022-12-22T13:09:49.801Z,22.42
2022-12-22T13:12:40.437Z,13.95
2022-12-22T13:15:34.823Z,20.77
2022-12-22T13:18:04.054Z,17.42
2022-12-22T13:20:33.818Z,23.23
2022-12-22T13:23:04.314Z,27.25
2022-12-22T13:25:47.998Z,20.52
2022-12-22T13:28:17.340Z,24.20
2022-12-22T13:31:24.811Z,22.75
2022-12-22T13:34:23.801Z,22.15
2022-12-22T13:36:51.431Z,18.33
2022-12-22T13:39:18.551Z,23.17
2022-12-22T13:41:48.518Z,30.42
2022-12-22T13:44:35.461Z,20.67
2022-12-22T13:47:13.155Z,34.15
2022-12-22T13:50:07.972Z,24.88
2022-12-22T13:52:29.024Z,27.58
2022-12-22T13:54:55.984Z,26.80
2022-12-22T13:57:23.549Z,29.33
2022-12-22T13:59:52.379Z,22.50
2022-12-22T14:02:21.250Z,33.15
2022-12-22T14:05:09.321Z,34.67
2022-12-22T14:07:36.554Z,38.60
2022-12-22T14:10:04.456Z,43.55
2022-12-22T14:12:40.979Z,46.55
2022-12-22T14:15:17.128Z,37.92
2022-12-22T14:17:52.262Z,42.30
2022-12-22T14:20:20.931Z,50.90
2022-12-22T14:23:11.768Z,39.25
2022-12-22T14:25:41.864Z,45.58
2022-12-22T14:28:33.784Z,50.60
2022-12-22T14:31:02.715Z,43.15
2022-12-22T14:33:34.483Z,48.78
2022-12-22T14:36:25.433Z,44.67
2022-12-22T14:38:55.050Z,53.75
2022-12-22T14:41:51.160Z,50.50
2022-12-22T14:44:32.387Z,50.45
2022-12-22T14:47:05.430Z,56.72
2022-12-22T14:49:33.505Z,51.15
2022-12-22T14:52:08.542Z,58.97
2022-12-22T14:54:35.642Z,59.10
2022-12-22T14:57:16.224Z,67.32
2022-12-22T14:59:59.253Z,68.78
2022-12-22T15:02:39.236Z,65.72
2022-12-22T15:05:25.274Z,67.82
2022-12-22T15:08:05.597Z,61.05
2022-12-22T15:10:41.364Z,64.15
2022-12-22T15:13:24.278Z,64.53
2022-12-22T15:15:52.446Z,64.53
2022-12-22T15:18:25.093Z,65.57
2022-12-22T15:20:52.155Z,59.85
2022-12-22T15:23:19.451Z,66.05
2022-12-22T15:25:46.752Z,66.10
2022-12-22T15:28:13.890Z,55.75
2022-12-22T15:30:41.586Z,71.95
2022-12-22T15:33:17.114Z,64.53
2022-12-22T15:35:45.535Z,61.13
2022-12-22T15:38:18.598Z,66.30
2022-12-22T15:40:46.098Z,79.22
2022-12-22T15:43:44.748Z,67.70
2022-12-22T15:46:04.190Z,68.60
2022-12-22T15:48:39.554Z,62.03
2022-12-22T15:51:12.589Z,68.60
2022-12-22T15:53:39.804Z,63.45
2022-12-22T15:56:17.351Z,55.28
2022-12-22T15:58:44.806Z,65.32
2022-12-22T16:01:12.889Z,76.00
2022-12-22T16:03:40.091Z,66.97
2022-12-22T16:06:13.859Z,58.40
2022-12-22T16:08:43.242Z,67.93
2022-12-22T16:11:10.554Z,64.28
2022-12-22T16:13:38.024Z,67.90
2022-12-22T16:16:05.467Z,69.60
2022-12-22T16:18:33.205Z,59.40
2022-12-22T16:21:07.960Z,64.35
2022-12-22T16:23:36.776Z,59.17
2022-12-22T16:26:05.285Z,58.65
2022-12-22T16:28:33.439Z,61.03
2022-12-22T16:31:01.283Z,65.13
2022-12-22T16:33:29.066Z,56.92
2022-12-22T16:35:56.705Z,60.85
2022-12-22T16:38:23.809Z,56.75
2022-12-22T16:40:53.211Z,51.35
2022-12-22T16:46:13.847Z,54.83
2022-12-22T16:48:44.944Z,58.60
2022-12-22T16:51:18.346Z,48.65
2022-12-22T16:53:46.042Z,45.58
2022-12-22T16:56:22.076Z,55.35
2022-12-22T16:58:49.530Z,51.80
2022-12-22T17:01:21.903Z,44.72
2022-12-22T17:03:49.491Z,54.67
2022-12-22T17:06:17.476Z,48.58
2022-12-22T17:08:46.442Z,48.05
2022-12-22T17:11:22.900Z,48.58
2022-12-22T17:13:52.495Z,49.03
2022-12-22T17:16:22.300Z,56.92
2022-12-22T17:18:49.826Z,48.67
2022-12-22T17:21:18.583Z,50.30
2022-12-22T17:23:49.733Z,43.78
2022-12-22T17:26:21.496Z,46.22
2022-12-22T17:28:49.870Z,37.40
2022-12-22T17:31:19.627Z,55.58
2022-12-22T17:33:46.815Z,52.45
2022-12-22T17:36:24.173Z,49.35
2022-12-22T17:38:51.274Z,45.67
2022-12-22T17:41:18.310Z,56.25
2022-12-22T17:43:46.670Z,58.95
2022-12-22T17:46:18.485Z,58.45
2022-12-22T17:48:46.683Z,39.25
2022-12-22T17:51:22.977Z,37.50
2022-12-22T17:53:50.061Z,45.40
2022-12-22T17:56:22.090Z,58.42
2022-12-22T17:58:49.549Z,36.35
2022-12-22T18:01:20.981Z,52.33
2022-12-22T18:03:48.152Z,39.78
2022-12-22T18:06:18.323Z,39.13
2022-12-22T18:08:46.227Z,43.22
2022-12-22T18:11:14.027Z,53.35
2022-12-22T18:13:41.449Z,47.40
2022-12-22T18:16:16.034Z,50.05
2022-12-22T18:18:43.873Z,35.17
2022-12-22T18:21:20.625Z,51.15
2022-12-22T18:23:50.598Z,46.08
2022-12-22T18:26:29.550Z,38.70
2022-12-22T18:28:56.712Z,42.60
2022-12-22T18:31:24.332Z,44.65
2022-12-22T18:33:51.995Z,37.72
2022-12-22T18:36:31.231Z,37.20
2022-12-22T18:39:00.257Z,48.65
2022-12-22T18:41:29.924Z,45.95
2022-12-22T18:43:56.922Z,38.90
2022-12-22T18:46:24.908Z,32.92
2022-12-22T18:48:51.897Z,31.92
2022-12-22T18:51:24.478Z,34.55
2022-12-22T18:53:54.061Z,49.58
2022-12-22T18:56:21.075Z,45.38
2022-12-22T18:58:48.210Z,31.50
2022-12-22T19:01:24.926Z,39.80
2022-12-22T19:03:55.320Z,41.97
2022-12-22T19:06:23.060Z,35.55
2022-12-22T19:08:50.914Z,38.25
2022-12-22T19:11:21.576Z,35.75
2022-12-22T19:13:51.493Z,32.70
2022-12-22T19:16:22.236Z,39.15
2022-12-22T19:18:49.145Z,42.75
2022-12-22T19:21:17.911Z,34.38
2022-12-22T19:23:45.927Z,31.20
2022-12-22T19:26:27.009Z,37.72
2022-12-22T19:28:57.418Z,44.15
2022-12-22T19:31:27.195Z,42.20
2022-12-22T19:33:56.081Z,40.97
2022-12-22T19:36:28.192Z,30.58
2022-12-22T19:39:03.379Z,26.67
2022-12-22T19:41:46.948Z,32.85
2022-12-22T19:44:29.184Z,32.88
2022-12-22T19:46:59.355Z,27.80
2022-12-22T19:49:27.918Z,32.50
2022-12-22T19:51:58.361Z,30.73
2022-12-22T19:54:25.574Z,35.65
2022-12-22T19:56:55.339Z,37.65
2022-12-22T19:59:35.591Z,44.53
2022-12-22T20:02:20.034Z,31.60
2022-12-22T20:04:47.744Z,36.95
2022-12-22T20:07:19.570Z,43.00
2022-12-22T20:09:46.580Z,46.13
2022-12-22T20:12:25.201Z,36.05
2022-12-22T20:15:20.649Z,26.52
2022-12-22T20:17:49.672Z,27.98
2022-12-22T20:20:37.543Z,33.55
2022-12-22T20:23:16.020Z,30.20
2022-12-22T20:25:48.520Z,31.92
2022-12-22T20:28:22.372Z,32.55
2022-12-22T20:30:50.046Z,27.23
2022-12-22T20:33:19.677Z,29.98
2022-12-22T20:35:48.064Z,35.58
2022-12-22T20:38:38.252Z,34.15
2022-12-22T20:41:08.585Z,33.63
2022-12-22T20:43:37.375Z,32.08
2022-12-22T20:46:12.337Z,33.70
2022-12-22T20:48:56.178Z,28.73
2022-12-22T20:51:25.776Z,33.28
2022-12-22T20:53:53.589Z,40.20
2022-12-22T20:56:33.840Z,36.85
2022-12-22T20:59:11.304Z,43.90
2022-12-22T21:01:38.605Z,38.80
2022-12-22T21:04:05.834Z,36.83
2022-12-22T21:06:39.845Z,31.95
2022-12-22T21:09:06.933Z,32.05
2022-12-22T21:11:34.977Z,36.78
2022-12-22T21:14:02.518Z,33.85
2022-12-22T21:16:31.763Z,36.88
2022-12-22T21:18:58.965Z,36.33
2022-12-22T21:21:26.275Z,34.60
2022-12-22T21:23:53.265Z,44.67
2022-12-22T21:26:34.485Z,41.35
2022-12-22T21:29:14.111Z,34.53
2022-12-22T21:31:40.970Z,37.42
2022-12-22T21:34:10.584Z,41.15
2022-12-22T21:36:38.262Z,30.98
2022-12-22T21:39:22.719Z,40.03
2022-12-22T21:42:03.906Z,37.42
2022-12-22T21:44:33.398Z,26.80
2022-12-22T21:47:01.188Z,37.22
2022-12-22T21:49:31.133Z,32.47
2022-12-22T21:51:58.231Z,27.63
2022-12-22T21:54:25.954Z,33.78
2022-12-22T21:56:54.263Z,31.02
2022-12-22T21:59:21.911Z,26.02
2022-12-22T22:01:49.364Z,34.15
2022-12-22T22:04:16.706Z,26.88
2022-12-22T22:06:43.666Z,28.73
2022-12-22T22:09:12.767Z,34.38
2022-12-22T22:11:59.027Z,28.55
2022-12-22T22:14:27.434Z,23.52
2022-12-22T22:16:54.409Z,27.58
2022-12-22T22:19:21.439Z,31.40
2022-12-22T22:21:48.808Z,28.48
2022-12-22T22:24:16.011Z,29.88
2022-12-22T22:26:46.033Z,38.03
2022-12-22T22:29:13.488Z,34.45
2022-12-22T22:31:41.433Z,29.73
2022-12-22T22:34:08.693Z,31.75
2022-12-22T22:36:35.816Z,32.30
2022-12-22T22:39:02.991Z,32.95
2022-12-22T22:41:34.103Z,29.92
2022-12-22T22:44:03.520Z,28.88
2022-12-22T22:46:30.488Z,25.80
2022-12-22T22:48:58.736Z,27.33
2022-12-22T22:51:25.904Z,24.58
2022-12-22T22:53:52.885Z,27.73
2022-12-22T22:56:19.850Z,30.52
2022-12-22T22:58:46.784Z,24.75
2022-12-22T23:01:13.896Z,28.85
2022-12-22T23:03:41.140Z,25.25
2022-12-22T23:06:10.950Z,28.52
2022-12-22T23:08:37.986Z,19.30
2022-12-22T23:11:06.291Z,28.55
2022-12-22T23:13:34.278Z,29.92
2022-12-22T23:16:03.219Z,33.05
2022-12-22T23:18:31.318Z,27.73
2022-12-22T23:21:03.052Z,32.00
2022-12-22T23:23:31.717Z,30.40
2022-12-22T23:25:59.093Z,25.52
2022-12-22T23:28:26.331Z,21.42
2022-12-22T23:30:54.289Z,28.33
2022-12-22T23:33:21.426Z,26.02
2022-12-22T23:35:50.271Z,23.58
2022-12-22T23:38:18.170Z,24.27
2022-12-22T23:40:54.441Z,26.77
2022-12-22T23:43:22.582Z,22.27
2022-12-22T23:45:49.767Z,28.40
2022-12-22T23:48:19.797Z,24.83
2022-12-22T23:50:47.962Z,21.90
2022-12-22T23:53:16.007Z,23.65
2022-12-22T23:55:49.997Z,22.27
2022-12-22T23:58:17.494Z,21.52
